sensor_id;sensor_type;location;lat;lon;timestamp;temperature;humidity
5617;DHT22;2830;50.656;7.568;2023-07-09T00:02:02;18.90;99.90
5617;DHT22;2830;50.656;7.568;2023-07-09T00:04:29;18.80;99.90
5617;DHT22;2830;50.656;7.568;2023-07-09T00:07:00;18.80;99.90
5617;DHT22;2830;50.656;7.568;2023-07-09T00:09:27;18.80;99.90
5617;DHT22;2830;50.656;7.568;2023-07-09T00:11:54;18.80;99.90
5617;DHT22;2830;50.656;7.568;2023-07-09T00:14:20;18.80;99.90
5617;DHT22;2830;50.656;7.568;2023-07-09T00:16:47;18.70;99.90
5617;DHT22;2830;50.656;7.568;2023-07-09T00:19:18;18.70;99.90
5617;DHT22;2830;50.656;7.568;2023-07-09T00:21:48;18.70;99.90
5617;DHT22;2830;50.656;7.568;2023-07-09T00:24:15;18.70;99.90
5617;DHT22;2830;50.656;7.568;2023-07-09T00:26:42;18.60;99.90
5617;DHT22;2830;50.656;7.568;2023-07-09T00:29:12;18.60;99.90
5617;DHT22;2830;50.656;7.568;2023-07-09T00:31:39;18.60;99.90
5617;DHT22;2830;50.656;7.568;2023-07-09T00:34:14;18.60;99.90
5617;DHT22;2830;50.656;7.568;2023-07-09T00:36:42;18.50;99.90
5617;DHT22;2830;50.656;7.568;2023-07-09T00:39:16;18.50;99.90
5617;DHT22;2830;50.656;7.568;2023-07-09T00:41:44;18.50;99.90
5617;DHT22;2830;50.656;7.568;2023-07-09T00:44:33;18.50;99.90
5617;DHT22;2830;50.656;7.568;2023-07-09T00:49:36;18.40;99.90
5617;DHT22;2830;50.656;7.568;2023-07-09T00:52:25;18.30;99.90
5617;DHT22;2830;50.656;7.568;2023-07-09T00:54:55;18.20;99.90
5617;DHT22;2830;50.656;7.568;2023-07-09T00:57:25;18.30;99.90
5617;DHT22;2830;50.656;7.568;2023-07-09T01:00:03;18.20;99.90
5617;DHT22;2830;50.656;7.568;2023-07-09T01:02:42;18.20;99.90
5617;DHT22;2830;50.656;7.568;2023-07-09T01:05:12;18.10;99.90
5617;DHT22;2830;50.656;7.568;2023-07-09T01:07:41;18.10;99.90
5617;DHT22;2830;50.656;7.568;2023-07-09T01:10:08;18.10;99.90
5617;DHT22;2830;50.656;7.568;2023-07-09T01:12:35;18.10;99.90
5617;DHT22;2830;50.656;7.568;2023-07-09T01:15:01;18.00;99.90
5617;DHT22;2830;50.656;7.568;2023-07-09T01:17:29;18.00;99.90
5617;DHT22;2830;50.656;7.568;2023-07-09T01:19:56;18.00;99.90
5617;DHT22;2830;50.656;7.568;2023-07-09T01:22:24;17.90;99.90
5617;DHT22;2830;50.656;7.568;2023-07-09T01:27:24;17.90;99.90
5617;DHT22;2830;50.656;7.568;2023-07-09T01:29:54;17.90;99.90
5617;DHT22;2830;50.656;7.568;2023-07-09T01:32:21;17.90;99.90
5617;DHT22;2830;50.656;7.568;2023-07-09T01:34:55;17.80;99.90
5617;DHT22;2830;50.656;7.568;2023-07-09T01:37:25;17.70;99.90
5617;DHT22;2830;50.656;7.568;2023-07-09T01:39:52;17.80;99.90
5617;DHT22;2830;50.656;7.568;2023-07-09T01:42:21;17.70;99.90
5617;DHT22;2830;50.656;7.568;2023-07-09T01:44:52;17.70;99.90
5617;DHT22;2830;50.656;7.568;2023-07-09T01:47:20;17.70;99.90
5617;DHT22;2830;50.656;7.568;2023-07-09T01:49:50;17.60;99.90
5617;DHT22;2830;50.656;7.568;2023-07-09T01:52:18;17.50;99.90
5617;DHT22;2830;50.656;7.568;2023-07-09T01:54:45;17.50;99.90
5617;DHT22;2830;50.656;7.568;2023-07-09T01:57:24;17.50;99.90
5617;DHT22;2830;50.656;7.568;2023-07-09T01:59:51;17.50;99.90
5617;DHT22;2830;50.656;7.568;2023-07-09T02:02:19;17.50;99.90
5617;DHT22;2830;50.656;7.568;2023-07-09T02:04:47;17.40;99.90
5617;DHT22;2830;50.656;7.568;2023-07-09T02:07:15;17.40;99.90
5617;DHT22;2830;50.656;7.568;2023-07-09T02:09:42;17.40;99.90
5617;DHT22;2830;50.656;7.568;2023-07-09T02:12:10;17.40;99.90
5617;DHT22;2830;50.656;7.568;2023-07-09T02:14:37;17.40;99.90
5617;DHT22;2830;50.656;7.568;2023-07-09T02:17:05;17.40;99.90
5617;DHT22;2830;50.656;7.568;2023-07-09T02:19:33;17.30;99.90
5617;DHT22;2830;50.656;7.568;2023-07-09T02:21:59;17.30;99.90
5617;DHT22;2830;50.656;7.568;2023-07-09T02:24:26;17.30;99.90
5617;DHT22;2830;50.656;7.568;2023-07-09T02:26:54;17.30;99.90
5617;DHT22;2830;50.656;7.568;2023-07-09T02:29:22;17.20;99.90
5617;DHT22;2830;50.656;7.568;2023-07-09T02:31:50;17.20;99.90
5617;DHT22;2830;50.656;7.568;2023-07-09T02:34:18;17.00;99.90
5617;DHT22;2830;50.656;7.568;2023-07-09T02:36:45;17.00;99.90
5617;DHT22;2830;50.656;7.568;2023-07-09T02:39:13;17.00;99.90
5617;DHT22;2830;50.656;7.568;2023-07-09T02:41:40;17.10;99.90
5617;DHT22;2830;50.656;7.568;2023-07-09T02:44:08;17.10;99.90
5617;DHT22;2830;50.656;7.568;2023-07-09T02:46:35;17.00;99.90
5617;DHT22;2830;50.656;7.568;2023-07-09T02:49:06;16.90;99.90
5617;DHT22;2830;50.656;7.568;2023-07-09T02:51:33;16.90;99.90
5617;DHT22;2830;50.656;7.568;2023-07-09T02:54:01;16.90;99.90
5617;DHT22;2830;50.656;7.568;2023-07-09T02:56:29;16.90;99.90
5617;DHT22;2830;50.656;7.568;2023-07-09T02:58:56;17.00;99.90
5617;DHT22;2830;50.656;7.568;2023-07-09T03:01:24;17.00;99.90
5617;DHT22;2830;50.656;7.568;2023-07-09T03:03:54;16.90;99.90
5617;DHT22;2830;50.656;7.568;2023-07-09T03:06:23;16.90;99.90
5617;DHT22;2830;50.656;7.568;2023-07-09T03:08:51;16.90;99.90
5617;DHT22;2830;50.656;7.568;2023-07-09T03:11:19;16.90;99.90
5617;DHT22;2830;50.656;7.568;2023-07-09T03:13:47;16.90;99.90
5617;DHT22;2830;50.656;7.568;2023-07-09T03:16:15;16.90;99.90
5617;DHT22;2830;50.656;7.568;2023-07-09T03:18:42;16.90;99.90
5617;DHT22;2830;50.656;7.568;2023-07-09T03:21:09;16.90;99.90
5617;DHT22;2830;50.656;7.568;2023-07-09T03:23:35;16.80;99.90
5617;DHT22;2830;50.656;7.568;2023-07-09T03:26:03;16.80;99.90
5617;DHT22;2830;50.656;7.568;2023-07-09T03:28:31;16.80;99.90
5617;DHT22;2830;50.656;7.568;2023-07-09T03:30:58;16.80;99.90
5617;DHT22;2830;50.656;7.568;2023-07-09T03:33:25;16.70;99.90
5617;DHT22;2830;50.656;7.568;2023-07-09T03:35:52;16.70;99.90
5617;DHT22;2830;50.656;7.568;2023-07-09T03:38:19;16.70;99.90
5617;DHT22;2830;50.656;7.568;2023-07-09T03:40:50;16.70;99.90
5617;DHT22;2830;50.656;7.568;2023-07-09T03:43:17;16.70;99.90
5617;DHT22;2830;50.656;7.568;2023-07-09T03:45:45;16.60;99.90
5617;DHT22;2830;50.656;7.568;2023-07-09T03:48:13;16.60;99.90
5617;DHT22;2830;50.656;7.568;2023-07-09T03:50:42;16.60;99.90
5617;DHT22;2830;50.656;7.568;2023-07-09T03:53:10;16.60;99.90
5617;DHT22;2830;50.656;7.568;2023-07-09T03:55:37;16.70;99.90
5617;DHT22;2830;50.656;7.568;2023-07-09T03:58:04;16.70;99.90
5617;DHT22;2830;50.656;7.568;2023-07-09T04:00:31;16.70;99.90
5617;DHT22;2830;50.656;7.568;2023-07-09T04:02:59;16.70;99.90
5617;DHT22;2830;50.656;7.568;2023-07-09T04:05:27;16.70;99.90
5617;DHT22;2830;50.656;7.568;2023-07-09T04:07:54;16.70;99.90
5617;DHT22;2830;50.656;7.568;2023-07-09T04:10:21;16.80;99.90
5617;DHT22;2830;50.656;7.568;2023-07-09T04:12:47;16.80;99.90
5617;DHT22;2830;50.656;7.568;2023-07-09T04:15:14;16.80;99.90
5617;DHT22;2830;50.656;7.568;2023-07-09T04:17:41;16.80;99.90
5617;DHT22;2830;50.656;7.568;2023-07-09T04:20:09;16.80;99.90
5617;DHT22;2830;50.656;7.568;2023-07-09T04:22:37;16.90;99.90
5617;DHT22;2830;50.656;7.568;2023-07-09T04:25:06;16.90;99.90
5617;DHT22;2830;50.656;7.568;2023-07-09T04:27:33;17.00;99.90
5617;DHT22;2830;50.656;7.568;2023-07-09T04:30:00;17.10;99.90
5617;DHT22;2830;50.656;7.568;2023-07-09T04:32:27;17.20;99.90
5617;DHT22;2830;50.656;7.568;2023-07-09T04:34:54;17.20;99.90
5617;DHT22;2830;50.656;7.568;2023-07-09T04:37:21;17.30;99.90
5617;DHT22;2830;50.656;7.568;2023-07-09T04:39:47;17.40;99.90
5617;DHT22;2830;50.656;7.568;2023-07-09T04:42:15;17.40;99.90
5617;DHT22;2830;50.656;7.568;2023-07-09T04:44:44;17.40;99.90
5617;DHT22;2830;50.656;7.568;2023-07-09T04:47:11;17.50;99.90
5617;DHT22;2830;50.656;7.568;2023-07-09T04:49:41;17.50;99.90
5617;DHT22;2830;50.656;7.568;2023-07-09T04:52:08;17.60;99.90
5617;DHT22;2830;50.656;7.568;2023-07-09T04:54:40;17.60;99.90
5617;DHT22;2830;50.656;7.568;2023-07-09T04:57:08;17.70;99.90
5617;DHT22;2830;50.656;7.568;2023-07-09T04:59:34;18.00;99.90
5617;DHT22;2830;50.656;7.568;2023-07-09T05:02:01;18.00;99.90
5617;DHT22;2830;50.656;7.568;2023-07-09T05:04:28;18.10;99.90
5617;DHT22;2830;50.656;7.568;2023-07-09T05:06:54;18.10;99.90
5617;DHT22;2830;50.656;7.568;2023-07-09T05:09:21;18.20;99.90
5617;DHT22;2830;50.656;7.568;2023-07-09T05:11:50;18.20;99.90
5617;DHT22;2830;50.656;7.568;2023-07-09T05:14:17;18.30;99.90
5617;DHT22;2830;50.656;7.568;2023-07-09T05:16:44;18.40;99.90
5617;DHT22;2830;50.656;7.568;2023-07-09T05:19:12;18.50;99.90
5617;DHT22;2830;50.656;7.568;2023-07-09T05:21:39;18.50;99.90
5617;DHT22;2830;50.656;7.568;2023-07-09T05:24:05;18.90;99.90
5617;DHT22;2830;50.656;7.568;2023-07-09T05:26:32;19.10;99.90
5617;DHT22;2830;50.656;7.568;2023-07-09T05:28:59;19.20;99.90
5617;DHT22;2830;50.656;7.568;2023-07-09T05:31:26;19.30;99.90
5617;DHT22;2830;50.656;7.568;2023-07-09T05:33:53;19.80;99.90
5617;DHT22;2830;50.656;7.568;2023-07-09T05:36:19;20.00;99.90
5617;DHT22;2830;50.656;7.568;2023-07-09T05:38:46;20.10;99.90
5617;DHT22;2830;50.656;7.568;2023-07-09T05:41:14;20.50;99.90
5617;DHT22;2830;50.656;7.568;2023-07-09T05:43:43;21.00;99.90
5617;DHT22;2830;50.656;7.568;2023-07-09T05:46:14;21.70;99.90
5617;DHT22;2830;50.656;7.568;2023-07-09T05:48:41;22.10;99.90
5617;DHT22;2830;50.656;7.568;2023-07-09T05:51:07;22.00;99.90
5617;DHT22;2830;50.656;7.568;2023-07-09T05:53:35;22.60;99.90
5617;DHT22;2830;50.656;7.568;2023-07-09T05:56:02;23.40;99.90
5617;DHT22;2830;50.656;7.568;2023-07-09T05:58:29;24.10;99.90
5617;DHT22;2830;50.656;7.568;2023-07-09T06:00:56;24.60;99.90
5617;DHT22;2830;50.656;7.568;2023-07-09T06:03:26;25.00;99.90
5617;DHT22;2830;50.656;7.568;2023-07-09T06:05:54;24.90;99.90
5617;DHT22;2830;50.656;7.568;2023-07-09T06:08:21;25.20;99.90
5617;DHT22;2830;50.656;7.568;2023-07-09T06:10:59;25.50;99.90
5617;DHT22;2830;50.656;7.568;2023-07-09T06:13:27;25.50;99.90
5617;DHT22;2830;50.656;7.568;2023-07-09T06:15:55;25.70;99.90
5617;DHT22;2830;50.656;7.568;2023-07-09T06:18:23;25.90;99.90
5617;DHT22;2830;50.656;7.568;2023-07-09T06:20:55;26.30;99.90
5617;DHT22;2830;50.656;7.568;2023-07-09T06:23:22;26.50;99.90
5617;DHT22;2830;50.656;7.568;2023-07-09T06:25:49;26.80;99.90
5617;DHT22;2830;50.656;7.568;2023-07-09T06:28:18;26.70;99.90
5617;DHT22;2830;50.656;7.568;2023-07-09T06:30:46;26.70;99.90
5617;DHT22;2830;50.656;7.568;2023-07-09T06:33:15;26.80;99.90
5617;DHT22;2830;50.656;7.568;2023-07-09T06:35:50;26.90;99.90
5617;DHT22;2830;50.656;7.568;2023-07-09T06:38:18;27.10;99.90
5617;DHT22;2830;50.656;7.568;2023-07-09T06:40:46;27.70;99.90
5617;DHT22;2830;50.656;7.568;2023-07-09T06:43:12;28.30;99.90
5617;DHT22;2830;50.656;7.568;2023-07-09T06:45:58;28.70;99.90
5617;DHT22;2830;50.656;7.568;2023-07-09T06:48:26;29.30;98.20
5617;DHT22;2830;50.656;7.568;2023-07-09T06:50:54;29.30;97.40
5617;DHT22;2830;50.656;7.568;2023-07-09T06:53:22;29.20;96.10
5617;DHT22;2830;50.656;7.568;2023-07-09T06:55:49;29.50;95.40
5617;DHT22;2830;50.656;7.568;2023-07-09T06:58:17;29.50;96.30
5617;DHT22;2830;50.656;7.568;2023-07-09T07:00:44;30.00;95.10
5617;DHT22;2830;50.656;7.568;2023-07-09T07:03:11;30.30;95.20
5617;DHT22;2830;50.656;7.568;2023-07-09T07:05:43;30.80;93.50
5617;DHT22;2830;50.656;7.568;2023-07-09T07:08:10;31.10;92.70
5617;DHT22;2830;50.656;7.568;2023-07-09T07:10:37;31.30;93.70
5617;DHT22;2830;50.656;7.568;2023-07-09T07:13:08;32.10;93.00
5617;DHT22;2830;50.656;7.568;2023-07-09T07:15:37;32.40;92.50
5617;DHT22;2830;50.656;7.568;2023-07-09T07:18:04;32.80;91.20
5617;DHT22;2830;50.656;7.568;2023-07-09T07:20:32;33.20;91.00
5617;DHT22;2830;50.656;7.568;2023-07-09T07:22:58;33.30;89.90
5617;DHT22;2830;50.656;7.568;2023-07-09T07:25:25;33.70;90.70
5617;DHT22;2830;50.656;7.568;2023-07-09T07:27:52;34.10;89.70
5617;DHT22;2830;50.656;7.568;2023-07-09T07:30:20;34.40;87.70
5617;DHT22;2830;50.656;7.568;2023-07-09T07:32:51;34.30;86.80
5617;DHT22;2830;50.656;7.568;2023-07-09T07:35:20;34.40;82.80
5617;DHT22;2830;50.656;7.568;2023-07-09T07:37:47;34.60;81.50
5617;DHT22;2830;50.656;7.568;2023-07-09T07:40:14;34.40;81.30
5617;DHT22;2830;50.656;7.568;2023-07-09T07:42:41;34.80;78.80
5617;DHT22;2830;50.656;7.568;2023-07-09T07:45:08;34.50;79.90
5617;DHT22;2830;50.656;7.568;2023-07-09T07:47:35;34.70;79.10
5617;DHT22;2830;50.656;7.568;2023-07-09T07:50:05;34.90;79.50
5617;DHT22;2830;50.656;7.568;2023-07-09T07:52:33;35.10;79.20
5617;DHT22;2830;50.656;7.568;2023-07-09T07:55:11;35.30;78.60
5617;DHT22;2830;50.656;7.568;2023-07-09T07:57:43;35.80;79.50
5617;DHT22;2830;50.656;7.568;2023-07-09T08:00:11;36.20;80.90
5617;DHT22;2830;50.656;7.568;2023-07-09T08:02:38;36.20;80.10
5617;DHT22;2830;50.656;7.568;2023-07-09T08:05:05;36.40;76.90
5617;DHT22;2830;50.656;7.568;2023-07-09T08:07:32;37.10;76.20
5617;DHT22;2830;50.656;7.568;2023-07-09T08:09:59;37.30;71.00
5617;DHT22;2830;50.656;7.568;2023-07-09T08:12:26;37.60;66.50
5617;DHT22;2830;50.656;7.568;2023-07-09T08:14:52;37.30;63.60
5617;DHT22;2830;50.656;7.568;2023-07-09T08:17:19;37.20;62.20
5617;DHT22;2830;50.656;7.568;2023-07-09T08:19:52;37.20;64.20
5617;DHT22;2830;50.656;7.568;2023-07-09T08:22:19;36.30;62.60
5617;DHT22;2830;50.656;7.568;2023-07-09T08:24:50;36.10;64.30
5617;DHT22;2830;50.656;7.568;2023-07-09T08:27:18;36.20;64.10
5617;DHT22;2830;50.656;7.568;2023-07-09T08:29:45;36.70;65.10
5617;DHT22;2830;50.656;7.568;2023-07-09T08:32:12;37.20;62.70
5617;DHT22;2830;50.656;7.568;2023-07-09T08:34:40;37.50;59.00
5617;DHT22;2830;50.656;7.568;2023-07-09T08:37:27;37.10;60.40
5617;DHT22;2830;50.656;7.568;2023-07-09T08:39:54;37.60;62.00
5617;DHT22;2830;50.656;7.568;2023-07-09T08:42:39;37.50;59.40
5617;DHT22;2830;50.656;7.568;2023-07-09T08:45:34;37.30;58.30
5617;DHT22;2830;50.656;7.568;2023-07-09T08:50:48;36.90;59.50
5617;DHT22;2830;50.656;7.568;2023-07-09T08:53:28;37.30;58.60
5617;DHT22;2830;50.656;7.568;2023-07-09T08:55:58;37.00;57.30
5617;DHT22;2830;50.656;7.568;2023-07-09T08:58:27;36.70;59.10
5617;DHT22;2830;50.656;7.568;2023-07-09T09:01:01;36.70;60.00
5617;DHT22;2830;50.656;7.568;2023-07-09T09:03:40;37.40;58.80
5617;DHT22;2830;50.656;7.568;2023-07-09T09:06:13;38.30;59.50
5617;DHT22;2830;50.656;7.568;2023-07-09T09:08:43;38.60;59.10
5617;DHT22;2830;50.656;7.568;2023-07-09T09:11:20;39.30;58.00
5617;DHT22;2830;50.656;7.568;2023-07-09T09:13:53;39.20;59.00
5617;DHT22;2830;50.656;7.568;2023-07-09T09:16:31;39.20;60.00
5617;DHT22;2830;50.656;7.568;2023-07-09T09:19:00;39.40;54.30
5617;DHT22;2830;50.656;7.568;2023-07-09T09:21:35;40.50;52.90
5617;DHT22;2830;50.656;7.568;2023-07-09T09:24:20;39.80;54.50
5617;DHT22;2830;50.656;7.568;2023-07-09T09:26:48;40.30;55.80
5617;DHT22;2830;50.656;7.568;2023-07-09T09:29:16;40.10;54.60
5617;DHT22;2830;50.656;7.568;2023-07-09T09:31:46;40.00;56.20
5617;DHT22;2830;50.656;7.568;2023-07-09T09:34:20;40.30;56.70
5617;DHT22;2830;50.656;7.568;2023-07-09T09:36:48;40.00;57.30
5617;DHT22;2830;50.656;7.568;2023-07-09T09:39:16;40.40;59.30
5617;DHT22;2830;50.656;7.568;2023-07-09T09:41:44;40.10;60.40
5617;DHT22;2830;50.656;7.568;2023-07-09T09:44:28;39.60;66.30
5617;DHT22;2830;50.656;7.568;2023-07-09T09:46:58;40.10;63.00
5617;DHT22;2830;50.656;7.568;2023-07-09T09:49:27;40.50;57.40
5617;DHT22;2830;50.656;7.568;2023-07-09T09:51:54;41.10;57.80
5617;DHT22;2830;50.656;7.568;2023-07-09T09:54:28;40.80;58.30
5617;DHT22;2830;50.656;7.568;2023-07-09T09:56:57;41.50;58.20
5617;DHT22;2830;50.656;7.568;2023-07-09T09:59:32;42.40;58.10
5617;DHT22;2830;50.656;7.568;2023-07-09T10:02:01;42.90;55.60
5617;DHT22;2830;50.656;7.568;2023-07-09T10:04:29;43.80;56.90
5617;DHT22;2830;50.656;7.568;2023-07-09T10:07:07;44.10;57.60
5617;DHT22;2830;50.656;7.568;2023-07-09T10:09:54;44.30;59.30
5617;DHT22;2830;50.656;7.568;2023-07-09T10:12:41;43.90;53.70
5617;DHT22;2830;50.656;7.568;2023-07-09T10:15:34;43.40;50.60
5617;DHT22;2830;50.656;7.568;2023-07-09T10:18:32;42.60;50.40
5617;DHT22;2830;50.656;7.568;2023-07-09T10:23:53;42.70;51.30
5617;DHT22;2830;50.656;7.568;2023-07-09T10:26:31;43.30;49.20
5617;DHT22;2830;50.656;7.568;2023-07-09T10:29:21;43.50;51.70
5617;DHT22;2830;50.656;7.568;2023-07-09T10:32:02;44.50;49.00
5617;DHT22;2830;50.656;7.568;2023-07-09T10:34:46;43.70;48.60
5617;DHT22;2830;50.656;7.568;2023-07-09T10:37:48;43.50;50.50
5617;DHT22;2830;50.656;7.568;2023-07-09T10:40:22;43.80;51.00
5617;DHT22;2830;50.656;7.568;2023-07-09T10:42:53;44.10;49.40
5617;DHT22;2830;50.656;7.568;2023-07-09T10:45:28;44.80;51.60
5617;DHT22;2830;50.656;7.568;2023-07-09T10:48:02;44.70;51.60
5617;DHT22;2830;50.656;7.568;2023-07-09T10:50:37;44.50;52.70
5617;DHT22;2830;50.656;7.568;2023-07-09T10:53:28;44.50;53.10
5617;DHT22;2830;50.656;7.568;2023-07-09T10:56:16;44.40;53.80
5617;DHT22;2830;50.656;7.568;2023-07-09T10:59:11;44.50;56.00
5617;DHT22;2830;50.656;7.568;2023-07-09T11:01:42;44.50;56.50
5617;DHT22;2830;50.656;7.568;2023-07-09T11:04:19;44.80;61.40
5617;DHT22;2830;50.656;7.568;2023-07-09T11:06:49;44.90;54.90
5617;DHT22;2830;50.656;7.568;2023-07-09T11:09:24;44.80;53.50
5617;DHT22;2830;50.656;7.568;2023-07-09T11:11:55;44.60;52.80
5617;DHT22;2830;50.656;7.568;2023-07-09T11:14:29;43.70;50.60
5617;DHT22;2830;50.656;7.568;2023-07-09T11:16:58;43.40;51.30
5617;DHT22;2830;50.656;7.568;2023-07-09T11:19:25;43.50;51.30
5617;DHT22;2830;50.656;7.568;2023-07-09T11:24:53;44.50;51.60
5617;DHT22;2830;50.656;7.568;2023-07-09T11:27:27;44.30;54.30
5617;DHT22;2830;50.656;7.568;2023-07-09T11:30:00;44.30;52.90
5617;DHT22;2830;50.656;7.568;2023-07-09T11:32:28;44.70;52.40
5617;DHT22;2830;50.656;7.568;2023-07-09T11:35:07;44.30;51.50
5617;DHT22;2830;50.656;7.568;2023-07-09T11:37:44;44.70;52.20
5617;DHT22;2830;50.656;7.568;2023-07-09T11:40:12;45.10;50.90
5617;DHT22;2830;50.656;7.568;2023-07-09T11:42:57;44.60;52.90
5617;DHT22;2830;50.656;7.568;2023-07-09T11:45:27;44.10;52.00
5617;DHT22;2830;50.656;7.568;2023-07-09T11:50:44;43.80;58.10
5617;DHT22;2830;50.656;7.568;2023-07-09T11:53:38;44.00;57.10
5617;DHT22;2830;50.656;7.568;2023-07-09T11:56:09;43.30;56.90
5617;DHT22;2830;50.656;7.568;2023-07-09T11:58:36;43.00;61.20
5617;DHT22;2830;50.656;7.568;2023-07-09T12:01:09;42.30;61.70
5617;DHT22;2830;50.656;7.568;2023-07-09T12:03:41;42.40;57.90
5617;DHT22;2830;50.656;7.568;2023-07-09T12:06:30;42.40;59.60
5617;DHT22;2830;50.656;7.568;2023-07-09T12:08:58;41.80;57.40
5617;DHT22;2830;50.656;7.568;2023-07-09T12:11:28;41.60;57.70
5617;DHT22;2830;50.656;7.568;2023-07-09T12:14:12;41.50;57.30
5617;DHT22;2830;50.656;7.568;2023-07-09T12:16:42;41.80;63.10
5617;DHT22;2830;50.656;7.568;2023-07-09T12:19:11;42.20;59.50
5617;DHT22;2830;50.656;7.568;2023-07-09T12:21:40;42.20;61.40
5617;DHT22;2830;50.656;7.568;2023-07-09T12:24:35;41.80;58.80
5617;DHT22;2830;50.656;7.568;2023-07-09T12:27:23;41.70;58.10
5617;DHT22;2830;50.656;7.568;2023-07-09T12:29:53;40.80;60.80
5617;DHT22;2830;50.656;7.568;2023-07-09T12:32:20;40.50;64.90
5617;DHT22;2830;50.656;7.568;2023-07-09T12:34:54;40.70;68.30
5617;DHT22;2830;50.656;7.568;2023-07-09T12:37:21;41.00;70.50
5617;DHT22;2830;50.656;7.568;2023-07-09T12:39:51;40.90;69.70
5617;DHT22;2830;50.656;7.568;2023-07-09T12:42:23;40.80;63.30
5617;DHT22;2830;50.656;7.568;2023-07-09T12:44:51;40.50;63.20
5617;DHT22;2830;50.656;7.568;2023-07-09T12:47:18;40.30;57.50
5617;DHT22;2830;50.656;7.568;2023-07-09T12:49:46;40.50;55.80
5617;DHT22;2830;50.656;7.568;2023-07-09T12:52:21;40.60;57.00
5617;DHT22;2830;50.656;7.568;2023-07-09T12:54:58;40.10;51.60
5617;DHT22;2830;50.656;7.568;2023-07-09T12:57:26;39.50;53.20
5617;DHT22;2830;50.656;7.568;2023-07-09T12:59:55;38.60;52.50
5617;DHT22;2830;50.656;7.568;2023-07-09T13:02:26;38.40;53.50
5617;DHT22;2830;50.656;7.568;2023-07-09T13:05:06;38.70;54.00
5617;DHT22;2830;50.656;7.568;2023-07-09T13:07:36;38.70;51.30
5617;DHT22;2830;50.656;7.568;2023-07-09T13:10:22;38.60;53.10
5617;DHT22;2830;50.656;7.568;2023-07-09T13:12:50;38.50;53.60
5617;DHT22;2830;50.656;7.568;2023-07-09T13:15:38;38.40;53.60
5617;DHT22;2830;50.656;7.568;2023-07-09T13:18:07;38.40;55.30
5617;DHT22;2830;50.656;7.568;2023-07-09T13:20:37;38.30;56.60
5617;DHT22;2830;50.656;7.568;2023-07-09T13:23:25;38.10;56.10
5617;DHT22;2830;50.656;7.568;2023-07-09T13:25:54;37.60;57.70
5617;DHT22;2830;50.656;7.568;2023-07-09T13:28:26;37.30;53.30
5617;DHT22;2830;50.656;7.568;2023-07-09T13:31:13;37.70;53.10
5617;DHT22;2830;50.656;7.568;2023-07-09T13:33:43;37.90;51.30
5617;DHT22;2830;50.656;7.568;2023-07-09T13:36:10;38.00;51.30
5617;DHT22;2830;50.656;7.568;2023-07-09T13:38:37;37.80;51.30
5617;DHT22;2830;50.656;7.568;2023-07-09T13:41:12;37.80;52.40
5617;DHT22;2830;50.656;7.568;2023-07-09T13:43:47;37.90;52.30
5617;DHT22;2830;50.656;7.568;2023-07-09T13:46:14;38.00;51.70
5617;DHT22;2830;50.656;7.568;2023-07-09T13:48:43;37.90;52.90
5617;DHT22;2830;50.656;7.568;2023-07-09T13:51:21;37.60;53.00
5617;DHT22;2830;50.656;7.568;2023-07-09T13:53:54;37.20;53.20
5617;DHT22;2830;50.656;7.568;2023-07-09T13:56:21;36.90;53.70
5617;DHT22;2830;50.656;7.568;2023-07-09T13:58:48;36.60;52.80
5617;DHT22;2830;50.656;7.568;2023-07-09T14:01:20;36.20;53.80
5617;DHT22;2830;50.656;7.568;2023-07-09T14:03:48;36.00;54.70
5617;DHT22;2830;50.656;7.568;2023-07-09T14:06:16;35.90;55.20
5617;DHT22;2830;50.656;7.568;2023-07-09T14:08:44;35.70;54.80
5617;DHT22;2830;50.656;7.568;2023-07-09T14:11:12;35.60;54.00
5617;DHT22;2830;50.656;7.568;2023-07-09T14:13:39;35.50;55.00
5617;DHT22;2830;50.656;7.568;2023-07-09T14:16:09;35.60;54.50
5617;DHT22;2830;50.656;7.568;2023-07-09T14:18:35;35.40;54.00
5617;DHT22;2830;50.656;7.568;2023-07-09T14:21:12;35.40;55.80
5617;DHT22;2830;50.656;7.568;2023-07-09T14:23:40;35.30;58.00
5617;DHT22;2830;50.656;7.568;2023-07-09T14:26:11;35.20;56.30
5617;DHT22;2830;50.656;7.568;2023-07-09T14:28:38;35.10;56.10
5617;DHT22;2830;50.656;7.568;2023-07-09T14:31:23;35.10;56.00
5617;DHT22;2830;50.656;7.568;2023-07-09T14:33:52;35.20;56.10
5617;DHT22;2830;50.656;7.568;2023-07-09T14:36:18;35.20;56.80
5617;DHT22;2830;50.656;7.568;2023-07-09T14:38:45;35.20;57.30
5617;DHT22;2830;50.656;7.568;2023-07-09T14:41:21;35.40;59.00
5617;DHT22;2830;50.656;7.568;2023-07-09T14:43:49;35.30;62.00
5617;DHT22;2830;50.656;7.568;2023-07-09T14:46:16;35.30;58.80
5617;DHT22;2830;50.656;7.568;2023-07-09T14:48:43;35.20;60.20
5617;DHT22;2830;50.656;7.568;2023-07-09T14:51:14;35.00;60.40
5617;DHT22;2830;50.656;7.568;2023-07-09T14:53:44;35.00;62.80
5617;DHT22;2830;50.656;7.568;2023-07-09T14:56:14;34.90;61.30
5617;DHT22;2830;50.656;7.568;2023-07-09T14:58:41;34.80;65.00
5617;DHT22;2830;50.656;7.568;2023-07-09T15:01:12;34.60;65.60
5617;DHT22;2830;50.656;7.568;2023-07-09T15:03:39;34.30;67.20
5617;DHT22;2830;50.656;7.568;2023-07-09T15:06:07;34.10;76.90
5617;DHT22;2830;50.656;7.568;2023-07-09T15:08:33;33.90;73.20
5617;DHT22;2830;50.656;7.568;2023-07-09T15:11:00;33.70;74.50
5617;DHT22;2830;50.656;7.568;2023-07-09T15:13:33;33.40;76.40
5617;DHT22;2830;50.656;7.568;2023-07-09T15:16:02;33.10;79.90
5617;DHT22;2830;50.656;7.568;2023-07-09T15:18:29;32.20;77.50
5617;DHT22;2830;50.656;7.568;2023-07-09T15:20:59;31.30;72.90
5617;DHT22;2830;50.656;7.568;2023-07-09T15:23:27;30.20;75.50
5617;DHT22;2830;50.656;7.568;2023-07-09T15:25:55;29.50;80.20
5617;DHT22;2830;50.656;7.568;2023-07-09T15:28:23;29.20;85.00
5617;DHT22;2830;50.656;7.568;2023-07-09T15:30:50;28.90;84.80
5617;DHT22;2830;50.656;7.568;2023-07-09T15:33:19;28.60;84.20
5617;DHT22;2830;50.656;7.568;2023-07-09T15:35:47;27.70;88.70
5617;DHT22;2830;50.656;7.568;2023-07-09T15:40:46;26.90;93.30
5617;DHT22;2830;50.656;7.568;2023-07-09T15:43:16;26.70;95.40
5617;DHT22;2830;50.656;7.568;2023-07-09T15:45:49;26.40;97.70
5617;DHT22;2830;50.656;7.568;2023-07-09T15:51:02;25.90;99.90
5617;DHT22;2830;50.656;7.568;2023-07-09T16:15:21;21.50;99.90
5617;DHT22;2830;50.656;7.568;2023-07-09T16:17:49;21.70;99.90
5617;DHT22;2830;50.656;7.568;2023-07-09T16:20:25;21.70;99.90
5617;DHT22;2830;50.656;7.568;2023-07-09T16:22:55;21.70;99.90
5617;DHT22;2830;50.656;7.568;2023-07-09T16:25:28;21.80;99.90
5617;DHT22;2830;50.656;7.568;2023-07-09T16:27:55;21.80;99.90
5617;DHT22;2830;50.656;7.568;2023-07-09T16:30:24;21.80;99.90
5617;DHT22;2830;50.656;7.568;2023-07-09T16:32:51;21.80;99.90
5617;DHT22;2830;50.656;7.568;2023-07-09T16:35:20;21.80;99.90
5617;DHT22;2830;50.656;7.568;2023-07-09T16:37:49;21.70;99.90
5617;DHT22;2830;50.656;7.568;2023-07-09T16:40:20;21.80;99.90
5617;DHT22;2830;50.656;7.568;2023-07-09T16:42:48;21.80;99.90
5617;DHT22;2830;50.656;7.568;2023-07-09T16:45:18;21.80;99.90
5617;DHT22;2830;50.656;7.568;2023-07-09T16:47:46;21.70;99.90
5617;DHT22;2830;50.656;7.568;2023-07-09T16:50:24;21.70;99.90
5617;DHT22;2830;50.656;7.568;2023-07-09T16:52:52;21.70;99.90
5617;DHT22;2830;50.656;7.568;2023-07-09T16:55:23;21.70;99.90
5617;DHT22;2830;50.656;7.568;2023-07-09T16:57:57;21.70;99.90
5617;DHT22;2830;50.656;7.568;2023-07-09T17:00:32;21.90;99.90
5617;DHT22;2830;50.656;7.568;2023-07-09T17:03:05;21.80;99.90
5617;DHT22;2830;50.656;7.568;2023-07-09T17:05:37;21.70;99.90
5617;DHT22;2830;50.656;7.568;2023-07-09T17:08:05;21.60;99.90